x

Shumagin Islands - 85nm South Of Sand Point, Ak (46075) Wave Buoy

11:50am - Tue 7th Jul 2015 All times are UTC.

  • Sig Wave height 6.9ft
  • Peak Period 9s
  • Average Period 6s
  • Wind
    16mph, 20mph gusts
  • Sea Temp 50°f
  • Air Temp 50°f
  • Sea Pressure 1010.7mb

More Historic Weather Station data

Upgrade to MSW Pro to gain access to the past 30 days of data for over 8000 Wavebouys and Weather Stations around the globe.

Join Pro

Comparision Forecast

View Surf forecast
   
Tue 07/07 11:50am 7ft 9s 6s 16 20 mph 1010.7mb 50f 50f
10:50am 7ft 10s 6s 18 22 mph 1010.2mb 50f 50f
9:50am 7ft 9s 6s 18 20 mph 1009.9mb 50f 50f
8:50am 7ft 9s 6s 16 18 mph 1009.6mb 50f 50f
7:50am 7ft 9s 6s 18 20 mph 1009.1mb 50f 50f
6:50am 7ft 9s 6s 16 18 mph 1008.4mb 51f 50f
5:50am 7ft 9s 6s 13 18 mph 1007.7mb 51f 50f
4:50am 7ft 9s 6s 13 16 mph 1007mb 51f 50f
3:50am 8ft 9s 6s 9 11 mph 1006.7mb 51f 49f
2:50am 7.5ft 9s 6s 18 20 mph 1006.3mb 50f 50f
1:50am 7ft 8s 6s 20 22 mph 1006mb 50f 50f
12:50am 8ft 9s 6s 18 22 mph 1005.7mb 50f 50f
Mon 07/06 11:50pm 8ft 9s 6s 18 22 mph 1005.6mb 50f 50f
10:50pm 8.5ft 9s 6s 20 25 mph 1005.2mb 50f 50f
9:50pm 8ft 9s 6s 20 25 mph 1005mb 50f 50f
8:50pm 10ft 9s 7s 20 22 mph 1004.8mb 51f 50f
7:50pm 8.5ft 9s 6s 20 25 mph 1004.6mb 51f 50f
6:50pm 8.5ft 9s 6s 13 16 mph 1004.5mb 51f 49f
5:50pm 8.5ft 10s 7s 18 20 mph 1004.3mb 51f 49f
4:50pm 9ft 10s 7s 18 20 mph 1004.2mb 51f 50f
3:50pm 9ft 9s 6s 20 25 mph 1004mb 51f 49f
2:50pm 9.5ft 9s 6s 22 27 mph 1003.6mb 51f 49f
1:50pm 10ft 9s 6s 22 27 mph 1003.4mb 51f 49f
12:50pm 10.5ft 9s 6s 27 31 mph 1003.2mb 51f 49f
11:50am 10ft 9s 6s 27 31 mph 1002.9mb 51f 50f
10:50am 11ft 10s 6s 25 29 mph 1003.3mb 51f 50f
9:50am 10ft 9s 6s 22 29 mph 1003.9mb 51f 50f
8:50am 11ft 9s 6s 25 29 mph 1004mb 51f 50f
7:50am 10ft 10s 6s 22 29 mph 1004.2mb 51f 50f
6:50am 11ft 10s 6s 22 29 mph 1004.2mb 51f 50f
5:50am 11ft 10s 7s 20 25 mph 1004.2mb 51f 50f
4:50am 11.5ft 10s 7s 20 25 mph 1003.8mb 51f 50f
3:50am 12ft 9s 7s 22 25 mph 1003.3mb 51f 50f
2:50am 11ft 9s 6s 22 29 mph 1002.4mb 51f 51f
1:50am 12.5ft 9s 7s 25 31 mph 1001.5mb 51f 51f
12:50am 14ft 9s 7s 27 34 mph 1000.4mb 51f 51f
Sun 07/05 11:50pm 13ft 9s 6s 31 38 mph 999mb 51f 51f
10:50pm 13ft 9s 6s 31 38 mph 997.7mb 51f 51f
9:50pm 12ft 9s 6s 34 43 mph 996.1mb 51f 51f
8:50pm 11ft 8s 6s 34 40 mph 995.6mb 51f 51f
7:50pm 10ft 7s 6s 31 43 mph 995.4mb 51f 52f
6:50pm 9.5ft 7s 6s 29 34 mph 995.4mb 51f 52f
5:50pm 9ft 7s 6s 27 34 mph 996.1mb 51f 52f
4:50pm 9.5ft 8s 6s 27 31 mph 996.5mb 51f 52f
3:50pm 9ft 7s 6s 25 29 mph 997.6mb 51f 52f
2:50pm 8.5ft 8s 5s 27 31 mph 998.7mb 51f 52f
1:50pm 9ft 7s 5s 27 31 mph 999.7mb 51f 52f
12:50pm 7.5ft 7s 5s 27 34 mph 1000.4mb 51f 52f
11:50am 8ft 6s 5s 27 34 mph 1001.6mb 51f 53f
10:50am 8ft 7s 5s 29 34 mph 1002.5mb 51f 52f
9:50am 7.5ft 8s 5s 27 31 mph 1003.8mb 51f 52f
8:50am 7ft 8s 5s 25 29 mph 1005.4mb 51f 52f
7:50am 7ft 8s 5s 25 29 mph 1006.7mb 51f 51f
6:50am 7.5ft 7s 6s 20 25 mph 1007.4mb 51f 51f
5:50am 7ft 7s 6s 20 25 mph 1007.8mb 51f 51f
4:50am 7ft 8s 6s 18 22 mph 1007.9mb 51f 51f
3:50am 7ft 7s 5s 16 20 mph 1008mb 52f 51f
2:50am 7.5ft 7s 5s 20 25 mph 1008mb 52f 50f
1:50am 7ft 7s 5s 20 25 mph 1007.7mb 51f 51f
12:50am 7ft 8s 5s 22 27 mph 1007.2mb 51f 51f
Sat 07/04 11:50pm 7ft 6s 5s 22 27 mph 1006.7mb 51f 50f
10:50pm 7.5ft 7s 5s 22 27 mph 1006.2mb 51f 51f
9:50pm 7ft 8s 5s 25 29 mph 1005.5mb 51f 50f
8:50pm 6ft 6s 5s 22 27 mph 1004.9mb 51f 51f
7:50pm 6ft 8s 5s 25 29 mph 1004.2mb 51f 51f
6:50pm 6ft 8s 5s 22 27 mph 1003.8mb 51f 50f
5:50pm 6ft 8s 6s 18 22 mph 1003mb 51f 50f
4:50pm 7ft 8s 6s 18 20 mph 1002.8mb 51f 50f
3:50pm 6ft 8s 5s 18 20 mph 1002.4mb 51f 50f
2:50pm 6ft 8s 6s 18 20 mph 1002.1mb 51f 50f
1:50pm 7ft 8s 6s 18 20 mph 1002mb 51f 50f
12:50pm 6ft 8s 5s 16 18 mph 1001.9mb 51f 50f
11:50am 7ft 8s 6s 16 18 mph 1002.1mb 51f 51f
10:50am 6.5ft 9s 6s 16 18 mph 1002.2mb 51f 51f
9:50am 7ft 8s 6s 16 18 mph 1002.4mb 51f 51f
8:50am 8.5ft 9s 6s 16 18 mph 1002.6mb 51f 51f
7:50am 7ft 9s 6s 16 18 mph 1002.5mb 51f 51f
6:50am 9ft 8s 6s 13 18 mph 1002.4mb 51f 50f
5:50am 8ft 8s 6s 16 20 mph 1002.2mb 51f 51f
4:50am 8.5ft 9s 6s 16 18 mph 1002.2mb 51f 51f
3:50am 9.5ft 8s 6s 20 22 mph 1002.3mb 51f 51f
2:50am 10ft 9s 6s 22 27 mph 1002.7mb 51f 51f
1:50am 10ft 9s 6s 25 31 mph 1003.2mb 51f 51f
12:50am 11ft 8s 6s 27 29 mph 1003.6mb 51f 51f
Fri 07/03 11:50pm 10ft 9s 6s 25 31 mph 1004.3mb 51f 51f
10:50pm 11ft 8s 6s 27 31 mph 1005.1mb 51f 51f
9:50pm  -   -   -  29
mph
- - -
8:50pm 10.5ft 9s 6s 29 34 mph 1006.8mb 51f 51f
7:50pm 10.5ft 9s 6s 31 36 mph 1007.5mb 51f 51f
6:50pm 11ft 8s 6s 31 38 mph 1008mb 51f 51f
5:50pm 11ft 8s 6s 29 36 mph 1008.8mb 51f 51f
4:50pm 10ft 8s 6s 29 34 mph 1009.3mb 51f 51f
3:50pm 11ft 8s 6s 29 34 mph 1009.7mb 51f 52f
2:50pm 9.5ft 8s 6s 29 34 mph 1010.3mb 51f 51f
1:50pm 9.5ft 8s 6s 29 34 mph 1010.9mb 51f 51f